Time;durP1;ratioP1;P1;durP2;ratioP2;P2;SDS_P1;SDS_P2;PMS_P1;PMS_P2;Temp;Humidity;BMP_temperature;BMP_pressure;BME280_temperature;BME280_humidity;BME280_pressure;Samples;Min_cycle;Max_cycle;Signal;HPM_P1;HPM_P2
2022/08/25 00:00:09;;;;;;;;;;;19.60;99.90;;;;;;6243854;22;19925;-67
2022/08/25 00:02:34;;;;;;;;;;;19.50;99.90;;;;;;6242787;22;19959;-67
2022/08/25 00:05:00;;;;;;;;;;;19.50;99.90;;;;;;6270984;22;19947;-68
2022/08/25 00:07:25;;;;;;;;;;;19.50;99.90;;;;;;6272848;22;19919;-70
2022/08/25 00:09:51;;;;;;;;;;;19.50;99.90;;;;;;6258626;22;19919;-68
2022/08/25 00:12:17;;;;;;;;;;;19.40;99.90;;;;;;6250976;22;19919;-68
2022/08/25 00:14:42;;;;;;;;;;;19.40;99.90;;;;;;6250476;22;19994;-69
2022/08/25 00:17:08;;;;;;;;;;;19.30;99.90;;;;;;6250987;22;19994;-68
2022/08/25 00:19:35;;;;;;;;;;;19.30;99.90;;;;;;6278092;22;19919;-69
2022/08/25 00:22:01;;;;;;;;;;;19.30;99.90;;;;;;6225449;22;19919;-69
2022/08/25 00:24:27;;;;;;;;;;;19.20;99.90;;;;;;6250184;22;20223;-69
2022/08/25 00:26:54;;;;;;;;;;;19.20;99.90;;;;;;6224686;22;19962;-69
2022/08/25 00:29:20;;;;;;;;;;;19.10;99.90;;;;;;6275725;22;19932;-69
2022/08/25 00:31:46;;;;;;;;;;;19.10;99.90;;;;;;6250520;22;19986;-68
2022/08/25 00:34:14;;;;;;;;;;;19.10;99.90;;;;;;6250210;22;19927;-69
2022/08/25 00:36:40;;;;;;;;;;;19.10;99.90;;;;;;6277302;22;20288;-69
2022/08/25 00:39:06;;;;;;;;;;;19.10;99.90;;;;;;6225533;22;19926;-69
2022/08/25 00:41:34;;;;;;;;;;;19.00;99.90;;;;;;6250784;22;20242;-69
2022/08/25 00:44:01;;;;;;;;;;;19.00;99.90;;;;;;6250482;22;20401;-69
2022/08/25 00:46:31;;;;;;;;;;;19.00;99.90;;;;;;6250603;22;19919;-70
2022/08/25 00:49:01;;;;;;;;;;;18.90;99.90;;;;;;6249900;22;19919;-69
2022/08/25 00:51:42;;;;;;;;;;;18.90;99.90;;;;;;6250666;22;19919;-70
2022/08/25 00:54:10;;;;;;;;;;;18.90;99.90;;;;;;6276076;22;20301;-68
2022/08/25 00:56:35;;;;;;;;;;;18.80;99.90;;;;;;6250655;22;19919;-69
2022/08/25 00:59:01;;;;;;;;;;;18.80;99.90;;;;;;6250565;22;19999;-68
2022/08/25 01:01:27;;;;;;;;;;;18.70;99.90;;;;;;6277705;22;19959;-69
2022/08/25 01:03:52;;;;;;;;;;;18.70;99.90;;;;;;6250329;22;19927;-69
2022/08/25 01:06:18;;;;;;;;;;;18.70;99.90;;;;;;6225135;22;20003;-69
2022/08/25 01:08:44;;;;;;;;;;;18.70;99.90;;;;;;6250171;22;19921;-68
2022/08/25 01:11:10;;;;;;;;;;;18.60;99.90;;;;;;6250081;22;19915;-69
2022/08/25 01:13:39;;;;;;;;;;;18.60;99.90;;;;;;6250256;22;19915;-68
2022/08/25 01:16:04;;;;;;;;;;;18.60;99.90;;;;;;6249688;22;19915;-70
2022/08/25 01:18:41;;;;;;;;;;;18.50;99.90;;;;;;6250428;22;20392;-69
2022/08/25 01:21:06;;;;;;;;;;;18.50;99.90;;;;;;6250779;22;19919;-70
2022/08/25 01:23:33;;;;;;;;;;;18.50;99.90;;;;;;6250347;22;19926;-68
2022/08/25 01:26:18;;;;;;;;;;;18.50;99.90;;;;;;6224911;22;19919;-68
2022/08/25 01:31:29;;;;;;;;;;;18.50;99.90;;;;;;6250420;22;19919;-69
2022/08/25 01:33:55;;;;;;;;;;;18.50;99.90;;;;;;6224801;22;19919;-69
2022/08/25 01:36:21;;;;;;;;;;;18.50;99.90;;;;;;6250351;22;20319;-69
2022/08/25 01:38:47;;;;;;;;;;;18.40;99.90;;;;;;6250489;22;19968;-69
2022/08/25 01:41:16;;;;;;;;;;;18.50;99.90;;;;;;6224909;22;19919;-69
2022/08/25 01:43:41;;;;;;;;;;;18.50;99.90;;;;;;6224695;22;19938;-69
2022/08/25 01:46:07;;;;;;;;;;;18.50;99.90;;;;;;6249590;22;20242;-69
2022/08/25 01:48:32;;;;;;;;;;;18.50;99.90;;;;;;6250051;22;19926;-68
2022/08/25 01:50:58;;;;;;;;;;;18.40;99.90;;;;;;6250227;22;19950;-69
2022/08/25 01:53:26;;;;;;;;;;;18.50;99.90;;;;;;6277414;22;19949;-69
2022/08/25 01:55:54;;;;;;;;;;;18.60;99.90;;;;;;6224961;22;20362;-69
2022/08/25 01:58:21;;;;;;;;;;;18.60;99.90;;;;;;6224950;22;19930;-68
2022/08/25 02:00:47;;;;;;;;;;;18.60;99.90;;;;;;6276938;22;20322;-70
2022/08/25 02:03:13;;;;;;;;;;;18.70;99.90;;;;;;6250628;22;20256;-69
2022/08/25 02:05:39;;;;;;;;;;;18.90;99.90;;;;;;6249610;22;19927;-69
2022/08/25 02:08:04;;;;;;;;;;;18.80;99.90;;;;;;6250258;22;19926;-68
2022/08/25 02:10:31;;;;;;;;;;;18.90;99.90;;;;;;6250223;22;19919;-68
2022/08/25 02:12:57;;;;;;;;;;;19.00;99.90;;;;;;6275757;22;19969;-69
2022/08/25 02:15:22;;;;;;;;;;;19.10;99.90;;;;;;6250251;22;19923;-68
2022/08/25 02:17:48;;;;;;;;;;;19.10;99.90;;;;;;6250166;22;19920;-68
2022/08/25 02:20:16;;;;;;;;;;;19.20;99.90;;;;;;6276129;22;20392;-69
2022/08/25 02:22:42;;;;;;;;;;;19.20;99.90;;;;;;6276309;22;19919;-68
2022/08/25 02:25:08;;;;;;;;;;;19.30;99.90;;;;;;6249691;22;20322;-70
2022/08/25 02:27:34;;;;;;;;;;;19.40;99.90;;;;;;6225055;22;19986;-69
2022/08/25 02:29:59;;;;;;;;;;;19.50;99.90;;;;;;6251795;22;19972;-69
2022/08/25 02:32:26;;;;;;;;;;;19.60;99.90;;;;;;6279368;22;19919;-69
2022/08/25 02:34:52;;;;;;;;;;;19.70;99.90;;;;;;6278914;22;20003;-68
2022/08/25 02:37:17;;;;;;;;;;;19.70;99.90;;;;;;6251987;22;19951;-68
2022/08/25 02:39:43;;;;;;;;;;;19.70;99.90;;;;;;6251488;22;19927;-69
2022/08/25 02:42:08;;;;;;;;;;;19.70;99.90;;;;;;6251817;22;19933;-69
2022/08/25 02:44:34;;;;;;;;;;;19.70;99.90;;;;;;6278771;22;19919;-69
2022/08/25 02:47:00;;;;;;;;;;;19.70;99.90;;;;;;6251781;22;19930;-68
2022/08/25 02:49:25;;;;;;;;;;;19.70;99.90;;;;;;6226553;22;19920;-68
2022/08/25 02:51:51;;;;;;;;;;;19.80;99.90;;;;;;6251591;22;19993;-68
2022/08/25 02:54:16;;;;;;;;;;;19.70;99.90;;;;;;6251754;22;19965;-69
2022/08/25 02:56:42;;;;;;;;;;;19.70;99.90;;;;;;6251783;22;19927;-68
2022/08/25 02:59:08;;;;;;;;;;;19.70;99.90;;;;;;6251308;22;19923;-68
2022/08/25 03:01:33;;;;;;;;;;;19.70;99.90;;;;;;6251608;22;19926;-68
2022/08/25 03:04:00;;;;;;;;;;;19.70;99.90;;;;;;6250865;22;19923;-68
2022/08/25 03:06:26;;;;;;;;;;;19.70;99.90;;;;;;6251391;22;20338;-69
2022/08/25 03:08:52;;;;;;;;;;;19.70;99.90;;;;;;6226279;22;19969;-69
2022/08/25 03:11:18;;;;;;;;;;;19.70;99.90;;;;;;6251779;22;19923;-68
2022/08/25 03:13:44;;;;;;;;;;;19.70;99.90;;;;;;6278211;22;19926;-68
2022/08/25 03:16:09;;;;;;;;;;;19.60;99.90;;;;;;6251350;22;19966;-69
2022/08/25 03:18:35;;;;;;;;;;;19.60;99.90;;;;;;6278934;22;19925;-68
2022/08/25 03:21:02;;;;;;;;;;;19.60;99.90;;;;;;6251019;22;19926;-70
2022/08/25 03:23:27;;;;;;;;;;;19.60;99.90;;;;;;6251418;22;19950;-69
2022/08/25 03:28:38;;;;;;;;;;;19.60;99.90;;;;;;6230310;22;19919;-68
2022/08/25 03:31:03;;;;;;;;;;;19.60;99.90;;;;;;6226132;22;19920;-68
2022/08/25 03:33:29;;;;;;;;;;;19.60;99.90;;;;;;6278352;22;19924;-69
2022/08/25 03:35:55;;;;;;;;;;;19.60;99.90;;;;;;6278461;22;19919;-69
2022/08/25 03:38:22;;;;;;;;;;;19.60;99.90;;;;;;6250824;22;20342;-68
2022/08/25 03:40:48;;;;;;;;;;;19.60;99.90;;;;;;6251139;22;19919;-68
2022/08/25 03:43:14;;;;;;;;;;;19.60;99.90;;;;;;6278272;22;19998;-68
2022/08/25 03:45:41;;;;;;;;;;;19.60;99.90;;;;;;6251432;22;19962;-69
2022/08/25 03:48:07;;;;;;;;;;;19.60;99.90;;;;;;6225667;22;20315;-68
2022/08/25 03:50:33;;;;;;;;;;;19.60;99.90;;;;;;6225909;22;20004;-68
2022/08/25 03:52:58;;;;;;;;;;;19.60;99.90;;;;;;6251351;22;20008;-69
2022/08/25 03:55:24;;;;;;;;;;;19.60;99.90;;;;;;6251142;22;19973;-69
2022/08/25 03:57:51;;;;;;;;;;;19.60;99.90;;;;;;6251198;22;19923;-70
2022/08/25 04:00:16;;;;;;;;;;;19.60;99.90;;;;;;6278854;22;19994;-68
2022/08/25 04:02:42;;;;;;;;;;;19.60;99.90;;;;;;6229693;22;19950;-68
2022/08/25 04:05:08;;;;;;;;;;;19.50;99.90;;;;;;6275893;22;19920;-68
2022/08/25 04:07:34;;;;;;;;;;;19.60;99.90;;;;;;6301567;22;19919;-67
2022/08/25 04:09:59;;;;;;;;;;;19.60;99.90;;;;;;6277288;22;19930;-68
2022/08/25 04:12:25;;;;;;;;;;;19.60;99.90;;;;;;6251954;22;19903;-67
2022/08/25 04:14:50;;;;;;;;;;;19.60;99.90;;;;;;6286042;22;19919;-69
2022/08/25 04:17:17;;;;;;;;;;;19.50;99.90;;;;;;6251023;22;19919;-69
2022/08/25 04:19:42;;;;;;;;;;;19.50;99.90;;;;;;6250762;22;20293;-70
2022/08/25 04:22:08;;;;;;;;;;;19.60;99.90;;;;;;6249709;22;19919;-68
2022/08/25 04:24:33;;;;;;;;;;;19.60;99.90;;;;;;6224592;22;19962;-69
2022/08/25 04:26:59;;;;;;;;;;;19.50;99.90;;;;;;6224676;22;20354;-68
2022/08/25 04:29:25;;;;;;;;;;;19.50;99.90;;;;;;6250675;22;19927;-69
2022/08/25 04:31:52;;;;;;;;;;;19.50;99.90;;;;;;6250765;22;19920;-69
2022/08/25 04:34:19;;;;;;;;;;;19.50;99.90;;;;;;6250542;22;20331;-69
2022/08/25 04:36:45;;;;;;;;;;;19.50;99.90;;;;;;6251067;22;19926;-70
2022/08/25 04:39:11;;;;;;;;;;;19.50;99.90;;;;;;6277826;22;20237;-68
2022/08/25 04:41:36;;;;;;;;;;;19.50;99.90;;;;;;6250641;22;19919;-70
2022/08/25 04:44:02;;;;;;;;;;;19.50;99.90;;;;;;6277644;22;20241;-68
2022/08/25 04:46:30;;;;;;;;;;;19.40;99.90;;;;;;6250585;22;19926;-69
2022/08/25 04:48:56;;;;;;;;;;;19.40;99.90;;;;;;6276344;22;19934;-69
2022/08/25 04:51:23;;;;;;;;;;;19.40;99.90;;;;;;6224938;22;19985;-69
2022/08/25 04:53:49;;;;;;;;;;;19.40;99.90;;;;;;6250721;22;19981;-68
2022/08/25 04:56:16;;;;;;;;;;;19.40;99.90;;;;;;6250412;22;19926;-68
2022/08/25 04:58:42;;;;;;;;;;;19.40;99.90;;;;;;6277679;22;19922;-69
2022/08/25 05:01:17;;;;;;;;;;;19.50;99.90;;;;;;6250447;22;19919;-68
2022/08/25 05:03:44;;;;;;;;;;;19.50;99.90;;;;;;6225326;22;19919;-69
2022/08/25 05:06:10;;;;;;;;;;;19.50;99.90;;;;;;6250288;22;19923;-69
2022/08/25 05:08:35;;;;;;;;;;;19.40;99.90;;;;;;6277920;22;19942;-70
2022/08/25 05:11:20;;;;;;;;;;;19.50;99.90;;;;;;6225189;22;19920;-69
2022/08/25 05:13:47;;;;;;;;;;;19.50;99.90;;;;;;6250809;22;19919;-69
2022/08/25 05:16:12;;;;;;;;;;;19.40;99.90;;;;;;6277539;22;19980;-68
2022/08/25 05:18:38;;;;;;;;;;;19.40;99.90;;;;;;6250440;22;19920;-69
2022/08/25 05:21:05;;;;;;;;;;;19.50;99.90;;;;;;6277385;22;19919;-69
2022/08/25 05:23:31;;;;;;;;;;;19.50;99.90;;;;;;6250265;22;20218;-69
2022/08/25 05:26:00;;;;;;;;;;;19.50;99.90;;;;;;6277510;22;19941;-69
2022/08/25 05:28:26;;;;;;;;;;;19.60;99.90;;;;;;6250313;22;19926;-68
2022/08/25 05:30:56;;;;;;;;;;;19.60;99.90;;;;;;6250552;22;20237;-70
2022/08/25 05:33:24;;;;;;;;;;;19.70;99.90;;;;;;6277314;22;19920;-73
2022/08/25 05:35:54;;;;;;;;;;;19.70;99.90;;;;;;6250427;22;19923;-79
2022/08/25 05:38:25;;;;;;;;;;;19.80;99.90;;;;;;6225735;22;20388;-80
2022/08/25 05:41:04;;;;;;;;;;;19.80;99.90;;;;;;6249956;22;19915;-78
2022/08/25 05:43:30;;;;;;;;;;;19.90;99.90;;;;;;6224252;22;19923;-80
2022/08/25 05:45:59;;;;;;;;;;;20.00;99.90;;;;;;6224876;22;19922;-78
2022/08/25 05:48:37;;;;;;;;;;;20.00;99.90;;;;;;6225046;22;20018;-78
2022/08/25 05:51:48;;;;;;;;;;;;;;;;;;;;;
2022/08/25 05:54:23;;;;;;;;;;;20.20;99.90;;;;;;6246263;22;19923;-79
2022/08/25 05:56:51;;;;;;;;;;;20.30;99.90;;;;;;6220584;22;20293;-78
2022/08/25 05:59:17;;;;;;;;;;;20.30;99.90;;;;;;6224697;22;19919;-78
2022/08/25 06:04:27;;;;;;;;;;;20.50;99.90;;;;;;6251852;22;20319;-79
2022/08/25 06:06:53;;;;;;;;;;;20.60;99.90;;;;;;6226605;22;19915;-73
2022/08/25 06:09:19;;;;;;;;;;;20.70;99.90;;;;;;6251879;22;19954;-77
2022/08/25 06:11:46;;;;;;;;;;;20.70;99.90;;;;;;6252151;22;20298;-77
2022/08/25 06:14:11;;;;;;;;;;;20.80;99.90;;;;;;6252100;22;19950;-78
2022/08/25 06:16:37;;;;;;;;;;;20.90;99.90;;;;;;6251508;22;20025;-77
2022/08/25 06:19:03;;;;;;;;;;;21.00;99.90;;;;;;6251428;22;19926;-75
2022/08/25 06:21:29;;;;;;;;;;;21.10;99.90;;;;;;6225415;22;20330;-74
2022/08/25 06:23:55;;;;;;;;;;;21.30;99.90;;;;;;6225954;22;19919;-76
2022/08/25 06:26:21;;;;;;;;;;;21.40;99.90;;;;;;6251600;22;19919;-76
2022/08/25 06:28:47;;;;;;;;;;;21.50;99.90;;;;;;6251898;22;20279;-75
2022/08/25 06:31:13;;;;;;;;;;;21.70;99.90;;;;;;6279007;22;20293;-75
2022/08/25 06:33:39;;;;;;;;;;;21.80;99.90;;;;;;6251862;22;19920;-75
2022/08/25 06:36:05;;;;;;;;;;;21.90;99.90;;;;;;6226409;22;20266;-75
2022/08/25 06:38:30;;;;;;;;;;;22.10;99.90;;;;;;6250940;22;20326;-73
2022/08/25 06:40:56;;;;;;;;;;;22.10;99.90;;;;;;6226571;22;19926;-76
2022/08/25 06:43:23;;;;;;;;;;;22.10;99.90;;;;;;6251694;22;19919;-77
2022/08/25 06:45:48;;;;;;;;;;;22.30;99.90;;;;;;6225985;22;19919;-77
2022/08/25 06:48:14;;;;;;;;;;;22.40;99.90;;;;;;6251461;22;19927;-75
2022/08/25 06:50:41;;;;;;;;;;;22.50;99.90;;;;;;6278807;22;19929;-77
2022/08/25 06:53:06;;;;;;;;;;;22.60;99.90;;;;;;6251736;22;20330;-74
2022/08/25 06:55:33;;;;;;;;;;;22.80;99.90;;;;;;6226025;22;19964;-76
2022/08/25 06:57:59;;;;;;;;;;;22.90;99.90;;;;;;6251340;22;20487;-76
2022/08/25 07:00:25;;;;;;;;;;;23.10;99.90;;;;;;6226061;22;19915;-77
2022/08/25 07:02:50;;;;;;;;;;;23.10;99.90;;;;;;6226226;22;19961;-76
2022/08/25 07:05:16;;;;;;;;;;;23.30;99.90;;;;;;6234850;23;19972;-75
2022/08/25 07:07:45;;;;;;;;;;;23.40;99.90;;;;;;6196003;23;19942;-75
2022/08/25 07:10:11;;;;;;;;;;;23.50;99.90;;;;;;6222045;23;19916;-75
2022/08/25 07:12:37;;;;;;;;;;;23.60;99.90;;;;;;6195795;23;19986;-76
2022/08/25 07:15:03;;;;;;;;;;;23.60;99.90;;;;;;6220150;23;20028;-77
2022/08/25 07:17:29;;;;;;;;;;;23.80;99.90;;;;;;6195929;23;20149;-77
2022/08/25 07:19:55;;;;;;;;;;;23.90;99.90;;;;;;6221171;23;20005;-77
2022/08/25 07:22:20;;;;;;;;;;;24.00;99.90;;;;;;6170995;23;19919;-74
2022/08/25 07:24:46;;;;;;;;;;;24.10;99.90;;;;;;6220668;23;20255;-76
2022/08/25 07:27:11;;;;;;;;;;;24.10;99.90;;;;;;6220677;23;19916;-76
2022/08/25 07:29:38;;;;;;;;;;;24.30;99.90;;;;;;6220969;23;20388;-76
2022/08/25 07:32:04;;;;;;;;;;;24.30;99.90;;;;;;6196018;23;19942;-76
2022/08/25 07:37:14;;;;;;;;;;;24.60;99.90;;;;;;6220536;23;19916;-75
2022/08/25 07:39:40;;;;;;;;;;;24.60;99.90;;;;;;6220613;23;19926;-77
2022/08/25 07:42:05;;;;;;;;;;;24.50;99.90;;;;;;6220431;23;19927;-76
2022/08/25 07:44:31;;;;;;;;;;;24.80;99.90;;;;;;6195851;23;19926;-75
2022/08/25 07:46:57;;;;;;;;;;;24.90;99.90;;;;;;6220502;23;20289;-74
2022/08/25 07:49:24;;;;;;;;;;;25.10;99.90;;;;;;6220574;23;19939;-75
2022/08/25 07:51:51;;;;;;;;;;;25.10;99.90;;;;;;6220429;23;19942;-77
2022/08/25 07:54:17;;;;;;;;;;;25.20;99.90;;;;;;6219450;23;19919;-80
2022/08/25 07:56:42;;;;;;;;;;;25.20;99.90;;;;;;6193684;23;19995;-78
2022/08/25 07:59:11;;;;;;;;;;;25.20;99.90;;;;;;6193905;23;20418;-83
2022/08/25 08:04:59;;;;;;;;;;;25.40;99.90;;;;;;6248050;22;19950;-78
2022/08/25 08:07:25;;;;;;;;;;;25.40;99.90;;;;;;6194081;23;19919;-77
2022/08/25 08:09:57;;;;;;;;;;;25.60;99.90;;;;;;6193974;23;19916;-78
2022/08/25 11:17:02;;;;;;;;;;;30.20;70.60;;;;;;6183489;23;20251;-76
2022/08/25 11:20:18;;;;;;;;;;;;;;;;;;;;;
2022/08/25 11:23:05;;;;;;;;;;;30.30;71.10;;;;;;6181679;23;19927;-76
2022/08/25 11:25:50;;;;;;;;;;;30.30;69.40;;;;;;6135064;23;19920;-77
2022/08/25 11:28:22;;;;;;;;;;;30.20;67.60;;;;;;6159873;23;20239;-75
2022/08/25 11:30:48;;;;;;;;;;;30.30;69.70;;;;;;6134529;23;19916;-70
2022/08/25 11:36:36;;;;;;;;;;;30.40;68.90;;;;;;6159418;23;19916;-82
2022/08/25 11:46:38;;;;;;;;;;;30.10;69.00;;;;;;6064577;23;19922;-77
2022/08/25 11:49:12;;;;;;;;;;;30.30;70.10;;;;;;6048045;23;20340;-75
2022/08/25 11:51:49;;;;;;;;;;;30.30;68.80;;;;;;6115976;23;19998;-75
2022/08/25 11:54:24;;;;;;;;;;;30.40;67.40;;;;;;6136167;23;19923;-75
2022/08/25 11:57:12;;;;;;;;;;;30.30;68.80;;;;;;6135800;23;19923;-75
2022/08/25 12:00:03;;;;;;;;;;;30.40;69.10;;;;;;6120283;23;20042;-76
2022/08/25 12:02:38;;;;;;;;;;;30.60;67.60;;;;;;6160791;23;19927;-77
2022/08/25 12:05:08;;;;;;;;;;;30.70;67.10;;;;;;6135901;23;19927;-75
2022/08/25 12:10:53;;;;;;;;;;;30.70;68.50;;;;;;6160245;23;19974;-76
2022/08/25 12:13:38;;;;;;;;;;;30.60;66.20;;;;;;6160487;23;19951;-75
2022/08/25 12:16:07;;;;;;;;;;;30.70;65.50;;;;;;6185077;23;19952;-77
2022/08/25 12:18:43;;;;;;;;;;;30.70;65.80;;;;;;6136507;23;19916;-76
2022/08/25 12:21:09;;;;;;;;;;;30.70;68.10;;;;;;6160345;23;19920;-77
2022/08/25 12:23:37;;;;;;;;;;;30.80;66.10;;;;;;6135272;23;19920;-76
2022/08/25 12:26:04;;;;;;;;;;;30.60;65.70;;;;;;6135473;23;20247;-75
2022/08/25 12:28:33;;;;;;;;;;;30.50;66.60;;;;;;6160663;23;19923;-74
2022/08/25 12:31:03;;;;;;;;;;;30.50;66.00;;;;;;6136357;23;19923;-76
2022/08/25 12:33:53;;;;;;;;;;;30.80;67.60;;;;;;6160794;23;20032;-75
2022/08/25 12:36:29;;;;;;;;;;;30.80;66.30;;;;;;6135515;23;20308;-76
2022/08/25 12:39:12;;;;;;;;;;;30.90;67.00;;;;;;6135531;23;19916;-76
2022/08/25 12:46:35;;;;;;;;;;;;;;;;;;;;;
2022/08/25 12:49:36;;;;;;;;;;;;;;;;;;;;;
2022/08/25 12:56:25;;;;;;;;;;;;;;;;;;;;;
2022/08/25 13:00:02;;;;;;;;;;;;;;;;;;;;;
2022/08/25 13:06:14;;;;;;;;;;;30.90;64.90;;;;;;6102601;23;20251;-77
2022/08/25 13:08:58;;;;;;;;;;;30.90;66.20;;;;;;6163038;23;19923;-78
2022/08/25 13:15:04;;;;;;;;;;;31.00;64.60;;;;;;6160111;23;19996;-76
2022/08/25 13:17:35;;;;;;;;;;;31.20;64.40;;;;;;6122200;23;20323;-76
2022/08/25 13:20:28;;;;;;;;;;;31.10;65.70;;;;;;6160049;23;19948;-77
2022/08/25 13:23:28;;;;;;;;;;;31.00;63.10;;;;;;6158886;23;19924;-79
2022/08/25 13:25:56;;;;;;;;;;;31.10;62.80;;;;;;6135102;23;20335;-75
2022/08/25 13:28:30;;;;;;;;;;;31.20;63.80;;;;;;6159752;23;19987;-78
2022/08/25 13:31:09;;;;;;;;;;;30.90;64.20;;;;;;6183443;23;19923;-77
2022/08/25 13:33:54;;;;;;;;;;;30.90;64.40;;;;;;6184473;23;19916;-77
2022/08/25 13:40:16;;;;;;;;;;;31.20;63.00;;;;;;6185866;23;19915;-78
2022/08/25 13:49:30;;;;;;;;;;;31.30;62.20;;;;;;6013086;23;19925;-78
2022/08/25 13:52:01;;;;;;;;;;;31.30;63.80;;;;;;5990806;23;19918;-76
2022/08/25 13:54:45;;;;;;;;;;;;;;;;;;;;;
2022/08/25 13:57:34;;;;;;;;;;;31.40;62.80;;;;;;6037327;23;20393;-75
2022/08/25 14:00:05;;;;;;;;;;;31.40;61.60;;;;;;6048844;23;19998;-76
2022/08/25 14:02:48;;;;;;;;;;;31.30;61.00;;;;;;6159311;23;19917;-77
2022/08/25 14:05:32;;;;;;;;;;;31.20;61.30;;;;;;6158897;23;19928;-78
2022/08/25 14:08:05;;;;;;;;;;;31.30;60.90;;;;;;6160514;23;19939;-79
2022/08/25 14:10:59;;;;;;;;;;;31.30;61.70;;;;;;6161042;23;19916;-78
2022/08/25 14:13:41;;;;;;;;;;;31.50;61.10;;;;;;6134181;23;19916;-80
2022/08/25 14:16:24;;;;;;;;;;;31.50;63.20;;;;;;6159391;23;20229;-76
2022/08/25 14:18:57;;;;;;;;;;;31.40;61.60;;;;;;6135198;23;20035;-81
2022/08/25 14:21:26;;;;;;;;;;;31.50;62.70;;;;;;6159115;23;19927;-81
2022/08/25 14:23:53;;;;;;;;;;;31.50;62.00;;;;;;6160802;23;19916;-80
2022/08/25 14:26:21;;;;;;;;;;;31.70;61.10;;;;;;6161633;23;19939;-79
2022/08/25 14:28:48;;;;;;;;;;;31.90;61.50;;;;;;6159624;23;19948;-80
2022/08/25 14:31:33;;;;;;;;;;;31.60;60.30;;;;;;6161068;23;19930;-81
2022/08/25 14:34:35;;;;;;;;;;;31.70;60.80;;;;;;6185433;23;19923;-79
2022/08/25 14:37:25;;;;;;;;;;;31.80;61.10;;;;;;6020740;23;19973;-81
2022/08/25 14:40:18;;;;;;;;;;;31.80;59.90;;;;;;6018240;23;19918;-81
2022/08/25 14:43:00;;;;;;;;;;;31.70;59.40;;;;;;6043130;23;19996;-82
2022/08/25 14:46:14;;;;;;;;;;;;;;;;;;;;;
2022/08/25 14:52:43;;;;;;;;;;;31.70;58.50;;;;;;6006277;23;19996;-83
2022/08/25 15:16:17;;;;;;;;;;;;;;;;;;;;;
2022/08/25 15:19:04;;;;;;;;;;;32.80;55.00;;;;;;6158974;23;19920;-78
2022/08/25 15:22:09;;;;;;;;;;;32.80;55.00;;;;;;6135925;23;20296;-78
2022/08/25 15:25:06;;;;;;;;;;;32.70;54.90;;;;;;6133187;23;19966;-78
2022/08/25 15:27:54;;;;;;;;;;;32.60;54.20;;;;;;6095898;23;19921;-81
2022/08/25 15:30:31;;;;;;;;;;;32.50;53.20;;;;;;6096048;23;19918;-80
2022/08/25 15:33:05;;;;;;;;;;;32.60;53.40;;;;;;6026640;23;19929;-79
2022/08/25 15:35:43;;;;;;;;;;;;;;;;;;;;;
2022/08/25 15:38:33;;;;;;;;;;;32.70;53.50;;;;;;6050107;23;20000;-81
2022/08/25 15:41:50;;;;;;;;;;;;;;;;;;;;;
2022/08/25 15:44:53;;;;;;;;;;;32.60;53.10;;;;;;6021882;23;19922;-79
2022/08/25 15:48:04;;;;;;;;;;;;;;;;;;;;;
2022/08/25 15:50:39;;;;;;;;;;;32.40;54.30;;;;;;6062679;23;19933;-80
2022/08/25 15:53:15;;;;;;;;;;;32.30;53.40;;;;;;6095625;23;19917;-81
2022/08/25 15:55:45;;;;;;;;;;;31.70;55.30;;;;;;6071339;23;19960;-78
2022/08/25 15:58:19;;;;;;;;;;;31.90;54.90;;;;;;6098195;23;19916;-79
2022/08/25 16:01:18;;;;;;;;;;;;;;;;;;;;;
2022/08/25 16:07:22;;;;;;;;;;;30.90;57.20;;;;;;6160142;23;19988;-77
2022/08/25 16:10:31;;;;;;;;;;;30.50;58.90;;;;;;6130712;23;19995;-84
2022/08/25 16:35:53;;;;;;;;;;;29.90;59.90;;;;;;6230523;22;19967;-78
2022/08/25 16:38:40;;;;;;;;;;;29.60;60.80;;;;;;6190440;23;19948;-82
2022/08/25 16:41:34;;;;;;;;;;;29.50;61.20;;;;;;6171973;23;20314;-85
2022/08/25 16:44:21;;;;;;;;;;;29.40;62.50;;;;;;6169980;23;19920;-80
2022/08/25 16:51:18;;;;;;;;;;;;;;;;;;;;;
2022/08/25 16:56:47;;;;;;;;;;;29.10;61.20;;;;;;6189697;23;19916;-81
2022/08/25 16:59:12;;;;;;;;;;;29.00;63.30;;;;;;6164783;23;19947;-81
2022/08/25 17:01:41;;;;;;;;;;;29.00;64.20;;;;;;6196649;23;19920;-80
2022/08/25 17:04:07;;;;;;;;;;;28.90;64.40;;;;;;6170572;23;19916;-81
2022/08/25 17:06:35;;;;;;;;;;;28.80;64.90;;;;;;6166792;23;19923;-80
2022/08/25 17:09:01;;;;;;;;;;;28.60;65.10;;;;;;6190206;23;19916;-78
2022/08/25 17:11:31;;;;;;;;;;;28.60;64.90;;;;;;6189769;23;20254;-78
2022/08/25 17:13:58;;;;;;;;;;;28.60;65.90;;;;;;6165376;23;19916;-80
2022/08/25 17:16:44;;;;;;;;;;;28.40;66.90;;;;;;6164718;23;19916;-77
2022/08/25 17:19:11;;;;;;;;;;;28.40;65.50;;;;;;6164406;23;19916;-74
2022/08/25 17:21:57;;;;;;;;;;;28.40;64.90;;;;;;6189540;23;19920;-82
2022/08/25 17:24:23;;;;;;;;;;;28.30;65.70;;;;;;6164185;23;19916;-81
2022/08/25 17:26:49;;;;;;;;;;;28.20;65.70;;;;;;6164873;23;20246;-77
2022/08/25 17:29:16;;;;;;;;;;;28.20;65.10;;;;;;6189584;23;19927;-78
2022/08/25 17:42:09;;;;;;;;;;;27.80;68.90;;;;;;6100097;23;19925;-79
2022/08/25 17:44:34;;;;;;;;;;;27.60;70.20;;;;;;6135018;23;19931;-81
2022/08/25 17:47:00;;;;;;;;;;;27.60;69.20;;;;;;6135447;23;19916;-79
2022/08/25 18:10:52;;;;;;;;;;;26.70;76.60;;;;;;5851151;24;20384;-83
2022/08/25 18:13:45;;;;;;;;;;;26.60;77.20;;;;;;5788040;24;19991;-84
2022/08/25 18:20:46;;;;;;;;;;;;;;;;;;;;;
2022/08/25 18:48:12;;;;;;;;;;;24.90;99.90;;;;;;5844352;24;19972;-70
2022/08/25 18:50:38;;;;;;;;;;;24.70;99.90;;;;;;5900231;24;19981;-70
2022/08/25 18:53:04;;;;;;;;;;;24.60;99.90;;;;;;6094461;23;19998;-69
2022/08/25 18:55:30;;;;;;;;;;;24.50;99.90;;;;;;6161383;23;19927;-71
2022/08/25 18:58:15;;;;;;;;;;;24.40;99.90;;;;;;6164697;23;20425;-69
2022/08/25 19:00:42;;;;;;;;;;;24.30;99.90;;;;;;6136758;23;19920;-66
2022/08/25 19:03:08;;;;;;;;;;;24.20;99.90;;;;;;6160370;23;19923;-70
2022/08/25 19:05:35;;;;;;;;;;;24.10;99.90;;;;;;6136182;23;19951;-69
2022/08/25 19:08:02;;;;;;;;;;;24.00;99.90;;;;;;6134873;23;19916;-71
2022/08/25 19:10:29;;;;;;;;;;;23.90;99.90;;;;;;6186286;23;19927;-70
2022/08/25 19:12:55;;;;;;;;;;;23.90;99.90;;;;;;6161185;23;19960;-71
2022/08/25 19:15:20;;;;;;;;;;;23.70;99.90;;;;;;6184921;23;19916;-69
2022/08/25 19:17:46;;;;;;;;;;;23.60;99.90;;;;;;6169106;23;19966;-71
2022/08/25 19:20:12;;;;;;;;;;;23.60;99.90;;;;;;6217512;23;19930;-72
2022/08/25 19:22:51;;;;;;;;;;;23.50;99.90;;;;;;6215631;23;19951;-73
2022/08/25 19:25:18;;;;;;;;;;;23.40;99.90;;;;;;6216423;23;20295;-71
2022/08/25 19:27:45;;;;;;;;;;;23.30;99.90;;;;;;6190883;23;19958;-72
2022/08/25 19:30:11;;;;;;;;;;;23.30;99.90;;;;;;6190767;23;19915;-72
2022/08/25 19:32:39;;;;;;;;;;;23.20;99.90;;;;;;6216140;23;19923;-72
2022/08/25 19:35:06;;;;;;;;;;;23.20;99.90;;;;;;6215494;23;19978;-72
2022/08/25 19:37:32;;;;;;;;;;;23.10;99.90;;;;;;6215890;23;19927;-72
2022/08/25 19:39:58;;;;;;;;;;;23.10;99.90;;;;;;6191336;23;19987;-73
2022/08/25 19:42:26;;;;;;;;;;;23.00;99.90;;;;;;6190732;23;19916;-72
2022/08/25 19:44:51;;;;;;;;;;;23.00;99.90;;;;;;6215122;23;19958;-73
2022/08/25 19:47:18;;;;;;;;;;;22.90;99.90;;;;;;6215486;23;19916;-71
2022/08/25 19:49:44;;;;;;;;;;;22.90;99.90;;;;;;6215185;23;19955;-68
2022/08/25 19:52:10;;;;;;;;;;;22.80;99.90;;;;;;6190045;23;19923;-68
2022/08/25 19:54:41;;;;;;;;;;;22.80;99.90;;;;;;6217112;23;20246;-68
2022/08/25 19:57:07;;;;;;;;;;;22.80;99.90;;;;;;6214847;23;19923;-67
2022/08/25 19:59:34;;;;;;;;;;;22.70;99.90;;;;;;6217243;23;19938;-69
2022/08/25 20:02:04;;;;;;;;;;;22.60;99.90;;;;;;6215708;23;19920;-68
2022/08/25 20:04:33;;;;;;;;;;;22.60;99.90;;;;;;6215306;23;19916;-69
2022/08/25 20:06:59;;;;;;;;;;;22.60;99.90;;;;;;6160410;23;19963;-70
2022/08/25 20:09:25;;;;;;;;;;;22.50;99.90;;;;;;6160777;23;19920;-69
2022/08/25 20:11:51;;;;;;;;;;;22.50;99.90;;;;;;6186695;23;19916;-68
2022/08/25 20:14:17;;;;;;;;;;;22.40;99.90;;;;;;6185070;23;20339;-68
2022/08/25 20:16:43;;;;;;;;;;;22.30;99.90;;;;;;6185275;23;19943;-68
2022/08/25 20:19:09;;;;;;;;;;;22.30;99.90;;;;;;6185548;23;20320;-68
2022/08/25 20:21:37;;;;;;;;;;;22.30;99.90;;;;;;6160456;23;19924;-67
2022/08/25 20:26:48;;;;;;;;;;;22.20;99.90;;;;;;6185040;23;19955;-67
2022/08/25 20:29:14;;;;;;;;;;;22.20;99.90;;;;;;6185288;23;19923;-67
2022/08/25 20:31:42;;;;;;;;;;;22.10;99.90;;;;;;6136354;23;19927;-68
2022/08/25 20:34:07;;;;;;;;;;;22.10;99.90;;;;;;6186625;23;19920;-68
2022/08/25 20:36:33;;;;;;;;;;;22.00;99.90;;;;;;6185003;23;20275;-67
2022/08/25 20:38:59;;;;;;;;;;;22.00;99.90;;;;;;6135576;23;20255;-69
2022/08/25 20:41:30;;;;;;;;;;;22.00;99.90;;;;;;6159931;23;19931;-74
2022/08/25 20:43:56;;;;;;;;;;;21.90;99.90;;;;;;6184911;23;20389;-68
2022/08/25 20:46:21;;;;;;;;;;;21.90;99.90;;;;;;6159430;23;19920;-67
2022/08/25 20:48:47;;;;;;;;;;;21.90;99.90;;;;;;6184788;23;19920;-66
2022/08/25 20:51:12;;;;;;;;;;;21.80;99.90;;;;;;6184564;23;20358;-65
2022/08/25 20:53:40;;;;;;;;;;;21.80;99.90;;;;;;6184787;23;20018;-68